sensor_id;sensor_type;location;lat;lon;timestamp;temperature;humidity
45283;DHT22;31023;44.994;1.796;2022-12-26T00:01:50;9.00;99.90
45283;DHT22;31023;44.994;1.796;2022-12-26T00:04:16;8.90;99.90
45283;DHT22;31023;44.994;1.796;2022-12-26T00:06:42;8.90;99.90
45283;DHT22;31023;44.994;1.796;2022-12-26T00:09:09;9.00;99.90
45283;DHT22;31023;44.994;1.796;2022-12-26T00:11:35;9.00;99.90
45283;DHT22;31023;44.994;1.796;2022-12-26T00:14:12;9.20;99.90
45283;DHT22;31023;44.994;1.796;2022-12-26T00:16:40;9.30;99.90
45283;DHT22;31023;44.994;1.796;2022-12-26T00:19:06;9.40;99.90
45283;DHT22;31023;44.994;1.796;2022-12-26T00:21:32;9.30;99.90
45283;DHT22;31023;44.994;1.796;2022-12-26T00:23:59;9.10;99.90
45283;DHT22;31023;44.994;1.796;2022-12-26T00:26:26;9.00;99.90
45283;DHT22;31023;44.994;1.796;2022-12-26T00:28:53;8.90;99.90
45283;DHT22;31023;44.994;1.796;2022-12-26T00:31:22;8.90;99.90
45283;DHT22;31023;44.994;1.796;2022-12-26T00:33:48;8.90;99.90
45283;DHT22;31023;44.994;1.796;2022-12-26T00:36:25;8.90;99.90
45283;DHT22;31023;44.994;1.796;2022-12-26T00:38:52;8.80;99.90
45283;DHT22;31023;44.994;1.796;2022-12-26T00:41:20;8.80;99.90
45283;DHT22;31023;44.994;1.796;2022-12-26T00:43:46;8.80;99.90
45283;DHT22;31023;44.994;1.796;2022-12-26T00:46:12;8.70;99.90
45283;DHT22;31023;44.994;1.796;2022-12-26T00:48:38;8.70;99.90
45283;DHT22;31023;44.994;1.796;2022-12-26T00:51:04;8.80;99.90
45283;DHT22;31023;44.994;1.796;2022-12-26T00:53:30;8.80;99.90
45283;DHT22;31023;44.994;1.796;2022-12-26T00:55:56;8.90;99.90
45283;DHT22;31023;44.994;1.796;2022-12-26T00:58:22;8.80;99.90
45283;DHT22;31023;44.994;1.796;2022-12-26T01:00:48;8.90;99.90
45283;DHT22;31023;44.994;1.796;2022-12-26T01:03:15;8.80;99.90
45283;DHT22;31023;44.994;1.796;2022-12-26T01:05:42;8.80;99.90
45283;DHT22;31023;44.994;1.796;2022-12-26T01:08:08;8.90;99.90
45283;DHT22;31023;44.994;1.796;2022-12-26T01:10:34;8.90;99.90
45283;DHT22;31023;44.994;1.796;2022-12-26T01:13:00;9.00;99.90
45283;DHT22;31023;44.994;1.796;2022-12-26T01:15:25;9.10;99.90
45283;DHT22;31023;44.994;1.796;2022-12-26T01:17:51;9.10;99.90
45283;DHT22;31023;44.994;1.796;2022-12-26T01:20:17;9.10;99.90
45283;DHT22;31023;44.994;1.796;2022-12-26T01:22:43;8.80;99.90
45283;DHT22;31023;44.994;1.796;2022-12-26T01:25:10;8.70;99.90
45283;DHT22;31023;44.994;1.796;2022-12-26T01:27:36;8.60;99.90
45283;DHT22;31023;44.994;1.796;2022-12-26T01:30:02;8.60;99.90
45283;DHT22;31023;44.994;1.796;2022-12-26T01:32:28;8.50;99.90
45283;DHT22;31023;44.994;1.796;2022-12-26T01:34:53;8.50;99.90
45283;DHT22;31023;44.994;1.796;2022-12-26T01:37:20;8.60;99.90
45283;DHT22;31023;44.994;1.796;2022-12-26T01:39:48;8.50;99.90
45283;DHT22;31023;44.994;1.796;2022-12-26T01:42:18;8.70;99.90
45283;DHT22;31023;44.994;1.796;2022-12-26T01:49:59;8.70;99.90
45283;DHT22;31023;44.994;1.796;2022-12-26T01:52:38;8.70;99.90
45283;DHT22;31023;44.994;1.796;2022-12-26T01:55:07;8.60;99.90
45283;DHT22;31023;44.994;1.796;2022-12-26T01:57:41;8.50;99.90
45283;DHT22;31023;44.994;1.796;2022-12-26T02:00:07;8.50;99.90
45283;DHT22;31023;44.994;1.796;2022-12-26T02:02:33;8.60;99.90
45283;DHT22;31023;44.994;1.796;2022-12-26T02:05:19;8.50;99.90
45283;DHT22;31023;44.994;1.796;2022-12-26T02:08:15;8.50;99.90
45283;DHT22;31023;44.994;1.796;2022-12-26T02:11:05;8.40;99.90
45283;DHT22;31023;44.994;1.796;2022-12-26T02:13:35;8.60;99.90
45283;DHT22;31023;44.994;1.796;2022-12-26T02:16:06;8.60;99.90
45283;DHT22;31023;44.994;1.796;2022-12-26T02:18:32;8.50;99.90
45283;DHT22;31023;44.994;1.796;2022-12-26T02:21:17;8.60;99.90
45283;DHT22;31023;44.994;1.796;2022-12-26T02:32:20;8.90;99.90
45283;DHT22;31023;44.994;1.796;2022-12-26T02:42:40;9.10;99.90
45283;DHT22;31023;44.994;1.796;2022-12-26T02:54:17;8.70;99.90
45283;DHT22;31023;44.994;1.796;2022-12-26T02:57:05;8.70;99.90
45283;DHT22;31023;44.994;1.796;2022-12-26T02:59:54;8.60;99.90
45283;DHT22;31023;44.994;1.796;2022-12-26T03:03:21;8.70;99.90
45283;DHT22;31023;44.994;1.796;2022-12-26T03:09:05;8.50;99.90
45283;DHT22;31023;44.994;1.796;2022-12-26T03:11:56;8.30;99.90
45283;DHT22;31023;44.994;1.796;2022-12-26T03:14:47;8.30;99.90
45283;DHT22;31023;44.994;1.796;2022-12-26T03:17:27;8.30;99.90
45283;DHT22;31023;44.994;1.796;2022-12-26T03:20:03;8.30;99.90
45283;DHT22;31023;44.994;1.796;2022-12-26T03:22:49;8.30;99.90
45283;DHT22;31023;44.994;1.796;2022-12-26T03:25:36;8.30;99.90
45283;DHT22;31023;44.994;1.796;2022-12-26T03:28:22;8.30;99.90
45283;DHT22;31023;44.994;1.796;2022-12-26T03:30:49;8.30;99.90
45283;DHT22;31023;44.994;1.796;2022-12-26T03:36:06;8.40;99.90
45283;DHT22;31023;44.994;1.796;2022-12-26T03:41:41;8.60;99.90
45283;DHT22;31023;44.994;1.796;2022-12-26T03:48:06;8.50;99.90
45283;DHT22;31023;44.994;1.796;2022-12-26T03:51:01;8.70;99.90
45283;DHT22;31023;44.994;1.796;2022-12-26T03:53:54;8.60;99.90
45283;DHT22;31023;44.994;1.796;2022-12-26T03:56:54;8.40;99.90
45283;DHT22;31023;44.994;1.796;2022-12-26T03:59:48;8.30;99.90
45283;DHT22;31023;44.994;1.796;2022-12-26T04:02:35;8.30;99.90
45283;DHT22;31023;44.994;1.796;2022-12-26T04:05:20;8.60;99.90
45283;DHT22;31023;44.994;1.796;2022-12-26T04:08:16;8.40;99.90
45283;DHT22;31023;44.994;1.796;2022-12-26T04:11:02;8.30;99.90
45283;DHT22;31023;44.994;1.796;2022-12-26T04:16:45;8.00;99.90
45283;DHT22;31023;44.994;1.796;2022-12-26T04:19:42;8.00;99.90
45283;DHT22;31023;44.994;1.796;2022-12-26T04:22:16;8.10;99.90
45283;DHT22;31023;44.994;1.796;2022-12-26T04:27:49;8.20;99.90
45283;DHT22;31023;44.994;1.796;2022-12-26T04:30:34;8.40;99.90
45283;DHT22;31023;44.994;1.796;2022-12-26T04:33:35;8.60;99.90
45283;DHT22;31023;44.994;1.796;2022-12-26T04:36:32;8.70;99.90
45283;DHT22;31023;44.994;1.796;2022-12-26T04:39:20;8.80;99.90
45283;DHT22;31023;44.994;1.796;2022-12-26T04:42:07;8.80;99.90
45283;DHT22;31023;44.994;1.796;2022-12-26T04:44:52;8.80;99.90
45283;DHT22;31023;44.994;1.796;2022-12-26T04:47:19;8.80;99.90
45283;DHT22;31023;44.994;1.796;2022-12-26T04:49:45;8.90;99.90
45283;DHT22;31023;44.994;1.796;2022-12-26T04:52:30;8.90;99.90
45283;DHT22;31023;44.994;1.796;2022-12-26T04:55:14;9.00;99.90
45283;DHT22;31023;44.994;1.796;2022-12-26T04:57:40;9.10;99.90
45283;DHT22;31023;44.994;1.796;2022-12-26T05:00:06;9.10;99.90
45283;DHT22;31023;44.994;1.796;2022-12-26T05:02:32;9.20;99.90
45283;DHT22;31023;44.994;1.796;2022-12-26T05:05:16;9.20;99.90
45283;DHT22;31023;44.994;1.796;2022-12-26T05:08:00;9.20;99.90
45283;DHT22;31023;44.994;1.796;2022-12-26T05:10:44;9.20;99.90
45283;DHT22;31023;44.994;1.796;2022-12-26T05:13:10;9.20;99.90
45283;DHT22;31023;44.994;1.796;2022-12-26T05:15:36;9.20;99.90
45283;DHT22;31023;44.994;1.796;2022-12-26T05:18:22;9.10;99.90
45283;DHT22;31023;44.994;1.796;2022-12-26T05:21:17;9.00;99.90
45283;DHT22;31023;44.994;1.796;2022-12-26T05:24:02;8.90;99.90
45283;DHT22;31023;44.994;1.796;2022-12-26T05:26:47;8.90;99.90
45283;DHT22;31023;44.994;1.796;2022-12-26T05:29:31;8.90;99.90
45283;DHT22;31023;44.994;1.796;2022-12-26T05:31:56;9.10;99.90
45283;DHT22;31023;44.994;1.796;2022-12-26T05:34:22;9.10;99.90
45283;DHT22;31023;44.994;1.796;2022-12-26T05:36:50;9.10;99.90
45283;DHT22;31023;44.994;1.796;2022-12-26T05:39:17;9.10;99.90
45283;DHT22;31023;44.994;1.796;2022-12-26T05:41:42;9.10;99.90
45283;DHT22;31023;44.994;1.796;2022-12-26T05:44:08;9.10;99.90
45283;DHT22;31023;44.994;1.796;2022-12-26T05:46:35;9.20;99.90
45283;DHT22;31023;44.994;1.796;2022-12-26T05:49:02;9.20;99.90
45283;DHT22;31023;44.994;1.796;2022-12-26T05:51:28;9.20;99.90
45283;DHT22;31023;44.994;1.796;2022-12-26T05:53:53;9.30;99.90
45283;DHT22;31023;44.994;1.796;2022-12-26T05:56:19;9.20;99.90
45283;DHT22;31023;44.994;1.796;2022-12-26T05:58:46;9.30;99.90
45283;DHT22;31023;44.994;1.796;2022-12-26T06:01:14;9.20;99.90
45283;DHT22;31023;44.994;1.796;2022-12-26T06:03:41;9.30;99.90
45283;DHT22;31023;44.994;1.796;2022-12-26T06:06:10;9.20;99.90
45283;DHT22;31023;44.994;1.796;2022-12-26T06:08:35;9.20;99.90
45283;DHT22;31023;44.994;1.796;2022-12-26T06:11:03;9.10;99.90
45283;DHT22;31023;44.994;1.796;2022-12-26T06:13:29;9.10;99.90
45283;DHT22;31023;44.994;1.796;2022-12-26T06:15:55;9.10;99.90
45283;DHT22;31023;44.994;1.796;2022-12-26T06:18:20;9.00;99.90
45283;DHT22;31023;44.994;1.796;2022-12-26T06:20:46;9.00;99.90
45283;DHT22;31023;44.994;1.796;2022-12-26T06:23:12;9.10;99.90
45283;DHT22;31023;44.994;1.796;2022-12-26T06:25:38;9.00;99.90
45283;DHT22;31023;44.994;1.796;2022-12-26T06:28:03;9.00;99.90
45283;DHT22;31023;44.994;1.796;2022-12-26T06:30:29;9.10;99.90
45283;DHT22;31023;44.994;1.796;2022-12-26T06:32:55;9.20;99.90
45283;DHT22;31023;44.994;1.796;2022-12-26T06:35:20;9.30;99.90
45283;DHT22;31023;44.994;1.796;2022-12-26T06:37:46;9.30;99.90
45283;DHT22;31023;44.994;1.796;2022-12-26T06:40:12;9.30;99.90
45283;DHT22;31023;44.994;1.796;2022-12-26T06:42:38;9.30;99.90
45283;DHT22;31023;44.994;1.796;2022-12-26T06:45:04;9.30;99.90
45283;DHT22;31023;44.994;1.796;2022-12-26T06:47:29;9.30;99.90
45283;DHT22;31023;44.994;1.796;2022-12-26T06:49:55;9.20;99.90
45283;DHT22;31023;44.994;1.796;2022-12-26T06:52:21;9.20;99.90
45283;DHT22;31023;44.994;1.796;2022-12-26T06:54:46;9.30;99.90
45283;DHT22;31023;44.994;1.796;2022-12-26T06:57:12;9.40;99.90
45283;DHT22;31023;44.994;1.796;2022-12-26T06:59:38;9.40;99.90
45283;DHT22;31023;44.994;1.796;2022-12-26T07:02:03;9.40;99.90
45283;DHT22;31023;44.994;1.796;2022-12-26T07:04:29;9.40;99.90
45283;DHT22;31023;44.994;1.796;2022-12-26T07:06:55;9.40;99.90
45283;DHT22;31023;44.994;1.796;2022-12-26T07:09:20;9.50;99.90
45283;DHT22;31023;44.994;1.796;2022-12-26T07:11:48;9.40;99.90
45283;DHT22;31023;44.994;1.796;2022-12-26T07:14:15;9.50;99.90
45283;DHT22;31023;44.994;1.796;2022-12-26T07:16:42;9.50;99.90
45283;DHT22;31023;44.994;1.796;2022-12-26T07:19:09;9.50;99.90
45283;DHT22;31023;44.994;1.796;2022-12-26T07:21:35;9.40;99.90
45283;DHT22;31023;44.994;1.796;2022-12-26T07:24:01;9.40;99.90
45283;DHT22;31023;44.994;1.796;2022-12-26T07:26:27;9.40;99.90
45283;DHT22;31023;44.994;1.796;2022-12-26T07:28:57;9.40;99.90
45283;DHT22;31023;44.994;1.796;2022-12-26T07:31:24;9.30;99.90
45283;DHT22;31023;44.994;1.796;2022-12-26T07:33:51;9.30;99.90
45283;DHT22;31023;44.994;1.796;2022-12-26T07:36:17;9.20;99.90
45283;DHT22;31023;44.994;1.796;2022-12-26T07:38:43;9.10;99.90
45283;DHT22;31023;44.994;1.796;2022-12-26T07:41:09;8.80;99.90
45283;DHT22;31023;44.994;1.796;2022-12-26T07:43:54;8.80;99.90
45283;DHT22;31023;44.994;1.796;2022-12-26T07:46:20;8.70;99.90
45283;DHT22;31023;44.994;1.796;2022-12-26T07:48:46;8.80;99.90
45283;DHT22;31023;44.994;1.796;2022-12-26T07:51:11;8.90;99.90
45283;DHT22;31023;44.994;1.796;2022-12-26T07:53:37;8.90;99.90
45283;DHT22;31023;44.994;1.796;2022-12-26T07:56:03;9.00;99.90
45283;DHT22;31023;44.994;1.796;2022-12-26T07:58:29;9.10;99.90
45283;DHT22;31023;44.994;1.796;2022-12-26T08:00:55;9.10;99.90
45283;DHT22;31023;44.994;1.796;2022-12-26T08:03:20;9.20;99.90
45283;DHT22;31023;44.994;1.796;2022-12-26T08:05:50;9.30;99.90
45283;DHT22;31023;44.994;1.796;2022-12-26T08:08:16;9.30;99.90
45283;DHT22;31023;44.994;1.796;2022-12-26T08:10:41;9.30;99.90
45283;DHT22;31023;44.994;1.796;2022-12-26T08:13:08;9.40;99.90
45283;DHT22;31023;44.994;1.796;2022-12-26T08:15:37;9.30;99.90
45283;DHT22;31023;44.994;1.796;2022-12-26T08:18:02;9.40;99.90
45283;DHT22;31023;44.994;1.796;2022-12-26T08:20:28;9.50;99.90
45283;DHT22;31023;44.994;1.796;2022-12-26T08:22:54;9.60;99.90
45283;DHT22;31023;44.994;1.796;2022-12-26T08:25:19;9.60;99.90
45283;DHT22;31023;44.994;1.796;2022-12-26T08:27:45;9.60;99.90
45283;DHT22;31023;44.994;1.796;2022-12-26T08:30:11;9.70;99.90
45283;DHT22;31023;44.994;1.796;2022-12-26T08:32:37;9.70;99.90
45283;DHT22;31023;44.994;1.796;2022-12-26T08:35:03;9.80;99.90
45283;DHT22;31023;44.994;1.796;2022-12-26T08:37:28;9.80;99.90
45283;DHT22;31023;44.994;1.796;2022-12-26T08:39:54;9.80;99.90
45283;DHT22;31023;44.994;1.796;2022-12-26T08:42:20;9.70;99.90
45283;DHT22;31023;44.994;1.796;2022-12-26T08:44:46;9.50;99.90
45283;DHT22;31023;44.994;1.796;2022-12-26T08:47:13;9.50;99.90
45283;DHT22;31023;44.994;1.796;2022-12-26T08:49:38;9.50;99.90
45283;DHT22;31023;44.994;1.796;2022-12-26T08:52:04;9.50;99.90
45283;DHT22;31023;44.994;1.796;2022-12-26T08:54:30;9.60;99.90
45283;DHT22;31023;44.994;1.796;2022-12-26T08:56:56;9.70;99.90
45283;DHT22;31023;44.994;1.796;2022-12-26T08:59:22;9.70;99.90
45283;DHT22;31023;44.994;1.796;2022-12-26T09:01:47;9.70;99.90
45283;DHT22;31023;44.994;1.796;2022-12-26T09:04:13;9.70;99.90
45283;DHT22;31023;44.994;1.796;2022-12-26T09:06:39;9.70;99.90
45283;DHT22;31023;44.994;1.796;2022-12-26T09:09:07;9.70;99.90
45283;DHT22;31023;44.994;1.796;2022-12-26T09:11:33;9.70;99.90
45283;DHT22;31023;44.994;1.796;2022-12-26T09:14:00;9.70;99.90
45283;DHT22;31023;44.994;1.796;2022-12-26T09:16:30;9.70;99.90
45283;DHT22;31023;44.994;1.796;2022-12-26T09:18:59;9.70;99.90
45283;DHT22;31023;44.994;1.796;2022-12-26T09:21:26;9.70;99.90
45283;DHT22;31023;44.994;1.796;2022-12-26T09:24:01;9.80;99.90
45283;DHT22;31023;44.994;1.796;2022-12-26T09:26:28;9.80;99.90
45283;DHT22;31023;44.994;1.796;2022-12-26T09:28:54;9.90;99.90
45283;DHT22;31023;44.994;1.796;2022-12-26T09:31:22;9.90;99.90
45283;DHT22;31023;44.994;1.796;2022-12-26T09:33:48;10.10;99.90
45283;DHT22;31023;44.994;1.796;2022-12-26T09:36:19;10.20;99.90
45283;DHT22;31023;44.994;1.796;2022-12-26T09:38:46;10.20;99.90
45283;DHT22;31023;44.994;1.796;2022-12-26T09:44:07;10.20;99.90
45283;DHT22;31023;44.994;1.796;2022-12-26T09:51:43;10.20;99.90
45283;DHT22;31023;44.994;1.796;2022-12-26T09:54:20;10.10;99.90
45283;DHT22;31023;44.994;1.796;2022-12-26T09:56:50;10.10;99.90
45283;DHT22;31023;44.994;1.796;2022-12-26T09:59:18;10.20;99.90
45283;DHT22;31023;44.994;1.796;2022-12-26T10:01:45;10.20;99.90
45283;DHT22;31023;44.994;1.796;2022-12-26T10:04:25;10.30;99.90
45283;DHT22;31023;44.994;1.796;2022-12-26T10:14:58;10.40;99.90
45283;DHT22;31023;44.994;1.796;2022-12-26T10:25:55;10.50;99.90
45283;DHT22;31023;44.994;1.796;2022-12-26T10:28:26;10.40;99.90
45283;DHT22;31023;44.994;1.796;2022-12-26T10:30:54;10.50;99.90
45283;DHT22;31023;44.994;1.796;2022-12-26T10:36:16;10.50;99.90
45283;DHT22;31023;44.994;1.796;2022-12-26T10:38:47;10.60;99.90
45283;DHT22;31023;44.994;1.796;2022-12-26T10:41:39;10.60;99.90
45283;DHT22;31023;44.994;1.796;2022-12-26T10:44:11;10.70;99.90
45283;DHT22;31023;44.994;1.796;2022-12-26T10:46:45;10.80;99.90
45283;DHT22;31023;44.994;1.796;2022-12-26T10:49:15;10.80;99.90
45283;DHT22;31023;44.994;1.796;2022-12-26T10:51:42;10.90;99.90
45283;DHT22;31023;44.994;1.796;2022-12-26T10:54:12;10.80;99.90
45283;DHT22;31023;44.994;1.796;2022-12-26T10:56:39;10.90;99.90
45283;DHT22;31023;44.994;1.796;2022-12-26T10:59:05;10.70;99.90
45283;DHT22;31023;44.994;1.796;2022-12-26T11:01:37;10.60;99.90
45283;DHT22;31023;44.994;1.796;2022-12-26T11:04:16;10.60;99.90
45283;DHT22;31023;44.994;1.796;2022-12-26T11:06:42;10.60;99.90
45283;DHT22;31023;44.994;1.796;2022-12-26T11:12:00;10.60;99.90
45283;DHT22;31023;44.994;1.796;2022-12-26T11:14:40;10.70;99.90
45283;DHT22;31023;44.994;1.796;2022-12-26T11:17:26;10.70;99.90
45283;DHT22;31023;44.994;1.796;2022-12-26T11:22:40;10.70;99.90
45283;DHT22;31023;44.994;1.796;2022-12-26T11:27:36;10.70;99.90
45283;DHT22;31023;44.994;1.796;2022-12-26T11:32:46;10.90;99.90
45283;DHT22;31023;44.994;1.796;2022-12-26T11:35:21;11.00;99.90
45283;DHT22;31023;44.994;1.796;2022-12-26T11:37:56;11.30;99.90
45283;DHT22;31023;44.994;1.796;2022-12-26T11:40:32;11.50;99.90
45283;DHT22;31023;44.994;1.796;2022-12-26T11:42:59;11.70;99.90
45283;DHT22;31023;44.994;1.796;2022-12-26T11:45:29;11.80;99.90
45283;DHT22;31023;44.994;1.796;2022-12-26T11:47:57;11.90;99.90
45283;DHT22;31023;44.994;1.796;2022-12-26T11:50:28;11.90;99.90
45283;DHT22;31023;44.994;1.796;2022-12-26T11:55:33;12.00;99.90
45283;DHT22;31023;44.994;1.796;2022-12-26T12:00:36;11.90;99.90
45283;DHT22;31023;44.994;1.796;2022-12-26T12:03:15;11.90;99.90
45283;DHT22;31023;44.994;1.796;2022-12-26T12:08:59;12.10;99.90
45283;DHT22;31023;44.994;1.796;2022-12-26T12:12:16;11.90;99.90
45283;DHT22;31023;44.994;1.796;2022-12-26T12:14:59;11.90;99.90
45283;DHT22;31023;44.994;1.796;2022-12-26T12:23:50;11.60;99.90
45283;DHT22;31023;44.994;1.796;2022-12-26T12:26:25;11.50;99.90
45283;DHT22;31023;44.994;1.796;2022-12-26T12:32:08;11.40;99.90
45283;DHT22;31023;44.994;1.796;2022-12-26T12:51:26;11.00;99.90
45283;DHT22;31023;44.994;1.796;2022-12-26T12:59:04;11.30;99.90
45283;DHT22;31023;44.994;1.796;2022-12-26T13:01:40;11.30;99.90
45283;DHT22;31023;44.994;1.796;2022-12-26T13:04:18;11.30;99.90
45283;DHT22;31023;44.994;1.796;2022-12-26T13:06:56;11.40;99.90
45283;DHT22;31023;44.994;1.796;2022-12-26T13:09:56;11.40;99.90
45283;DHT22;31023;44.994;1.796;2022-12-26T13:12:33;11.30;99.90
45283;DHT22;31023;44.994;1.796;2022-12-26T13:15:23;11.30;99.90
45283;DHT22;31023;44.994;1.796;2022-12-26T13:20:39;11.30;99.90
45283;DHT22;31023;44.994;1.796;2022-12-26T13:26:19;11.30;99.90
45283;DHT22;31023;44.994;1.796;2022-12-26T13:29:38;11.30;99.90
45283;DHT22;31023;44.994;1.796;2022-12-26T13:31:44;11.30;99.90
45283;DHT22;31023;44.994;1.796;2022-12-26T13:34:15;11.20;99.90
45283;DHT22;31023;44.994;1.796;2022-12-26T13:36:45;11.20;99.90
45283;DHT22;31023;44.994;1.796;2022-12-26T13:41:44;11.00;99.90
45283;DHT22;31023;44.994;1.796;2022-12-26T13:44:29;11.10;99.90
45283;DHT22;31023;44.994;1.796;2022-12-26T13:46:58;11.00;99.90
45283;DHT22;31023;44.994;1.796;2022-12-26T13:55:18;11.10;99.90
45283;DHT22;31023;44.994;1.796;2022-12-26T14:03:19;10.90;99.90
45283;DHT22;31023;44.994;1.796;2022-12-26T14:17:14;10.70;99.90
45283;DHT22;31023;44.994;1.796;2022-12-26T14:25:21;10.80;99.90
45283;DHT22;31023;44.994;1.796;2022-12-26T14:28:08;10.80;99.90
45283;DHT22;31023;44.994;1.796;2022-12-26T14:33:39;11.00;99.90
45283;DHT22;31023;44.994;1.796;2022-12-26T14:38:54;11.20;99.90
45283;DHT22;31023;44.994;1.796;2022-12-26T14:41:21;11.30;99.90
45283;DHT22;31023;44.994;1.796;2022-12-26T14:49:38;11.50;99.90
45283;DHT22;31023;44.994;1.796;2022-12-26T14:54:49;11.40;99.90
45283;DHT22;31023;44.994;1.796;2022-12-26T14:57:41;11.30;99.90
45283;DHT22;31023;44.994;1.796;2022-12-26T15:00:28;11.30;99.90
45283;DHT22;31023;44.994;1.796;2022-12-26T15:05:31;11.10;99.90
45283;DHT22;31023;44.994;1.796;2022-12-26T15:14:42;11.00;99.90
45283;DHT22;31023;44.994;1.796;2022-12-26T15:23:07;11.00;99.90
45283;DHT22;31023;44.994;1.796;2022-12-26T15:29:25;11.00;99.90
45283;DHT22;31023;44.994;1.796;2022-12-26T15:50:57;10.80;99.90
45283;DHT22;31023;44.994;1.796;2022-12-26T16:02:31;10.80;99.90
45283;DHT22;31023;44.994;1.796;2022-12-26T16:08:03;10.70;99.90
45283;DHT22;31023;44.994;1.796;2022-12-26T16:10:34;10.70;99.90
45283;DHT22;31023;44.994;1.796;2022-12-26T16:15:48;10.70;99.90
45283;DHT22;31023;44.994;1.796;2022-12-26T16:18:26;10.70;99.90
45283;DHT22;31023;44.994;1.796;2022-12-26T16:20:55;10.70;99.90
45283;DHT22;31023;44.994;1.796;2022-12-26T16:23:43;10.60;99.90
45283;DHT22;31023;44.994;1.796;2022-12-26T16:26:20;10.60;99.90
45283;DHT22;31023;44.994;1.796;2022-12-26T16:28:48;10.50;99.90
45283;DHT22;31023;44.994;1.796;2022-12-26T16:31:25;10.60;99.90
45283;DHT22;31023;44.994;1.796;2022-12-26T16:33:53;10.50;99.90
45283;DHT22;31023;44.994;1.796;2022-12-26T16:36:28;10.50;99.90
45283;DHT22;31023;44.994;1.796;2022-12-26T16:38:54;10.50;99.90
45283;DHT22;31023;44.994;1.796;2022-12-26T16:41:23;10.50;99.90
45283;DHT22;31023;44.994;1.796;2022-12-26T16:43:50;10.50;99.90
45283;DHT22;31023;44.994;1.796;2022-12-26T16:46:17;10.50;99.90
45283;DHT22;31023;44.994;1.796;2022-12-26T16:48:45;10.50;99.90
45283;DHT22;31023;44.994;1.796;2022-12-26T16:57:12;10.50;99.90
45283;DHT22;31023;44.994;1.796;2022-12-26T16:59:53;10.40;99.90
45283;DHT22;31023;44.994;1.796;2022-12-26T17:02:29;10.40;99.90
45283;DHT22;31023;44.994;1.796;2022-12-26T17:05:03;10.50;99.90
45283;DHT22;31023;44.994;1.796;2022-12-26T17:07:32;10.50;99.90
45283;DHT22;31023;44.994;1.796;2022-12-26T17:09:59;10.40;99.90
45283;DHT22;31023;44.994;1.796;2022-12-26T17:12:35;10.40;99.90
45283;DHT22;31023;44.994;1.796;2022-12-26T17:15:03;10.50;99.90
45283;DHT22;31023;44.994;1.796;2022-12-26T17:17:32;10.50;99.90
45283;DHT22;31023;44.994;1.796;2022-12-26T17:22:48;10.40;99.90
45283;DHT22;31023;44.994;1.796;2022-12-26T17:27:47;10.30;99.90
45283;DHT22;31023;44.994;1.796;2022-12-26T17:30:30;10.30;99.90
45283;DHT22;31023;44.994;1.796;2022-12-26T17:33:16;10.20;99.90
45283;DHT22;31023;44.994;1.796;2022-12-26T17:35:53;10.30;99.90
45283;DHT22;31023;44.994;1.796;2022-12-26T17:38:22;10.20;99.90
45283;DHT22;31023;44.994;1.796;2022-12-26T17:40:52;10.30;99.90
45283;DHT22;31023;44.994;1.796;2022-12-26T17:43:22;10.30;99.90
45283;DHT22;31023;44.994;1.796;2022-12-26T17:45:48;10.30;99.90
45283;DHT22;31023;44.994;1.796;2022-12-26T17:48:14;10.40;99.90
45283;DHT22;31023;44.994;1.796;2022-12-26T17:50:42;10.30;99.90
45283;DHT22;31023;44.994;1.796;2022-12-26T17:55:43;10.30;99.90
45283;DHT22;31023;44.994;1.796;2022-12-26T17:58:11;10.20;99.90
45283;DHT22;31023;44.994;1.796;2022-12-26T18:00:38;10.30;99.90
45283;DHT22;31023;44.994;1.796;2022-12-26T18:03:04;10.30;99.90
45283;DHT22;31023;44.994;1.796;2022-12-26T18:05:29;10.30;99.90
45283;DHT22;31023;44.994;1.796;2022-12-26T18:07:55;10.20;99.90
45283;DHT22;31023;44.994;1.796;2022-12-26T18:10:27;10.20;99.90
45283;DHT22;31023;44.994;1.796;2022-12-26T18:12:56;10.20;99.90
45283;DHT22;31023;44.994;1.796;2022-12-26T18:15:24;10.30;99.90
45283;DHT22;31023;44.994;1.796;2022-12-26T18:17:51;10.30;99.90
45283;DHT22;31023;44.994;1.796;2022-12-26T18:20:23;10.30;99.90
45283;DHT22;31023;44.994;1.796;2022-12-26T18:22:50;10.30;99.90
45283;DHT22;31023;44.994;1.796;2022-12-26T18:25:18;10.30;99.90
45283;DHT22;31023;44.994;1.796;2022-12-26T18:27:46;10.30;99.90
45283;DHT22;31023;44.994;1.796;2022-12-26T18:30:17;10.30;99.90
45283;DHT22;31023;44.994;1.796;2022-12-26T18:32:44;10.30;99.90
45283;DHT22;31023;44.994;1.796;2022-12-26T18:35:11;10.30;99.90
45283;DHT22;31023;44.994;1.796;2022-12-26T18:37:37;10.30;99.90
45283;DHT22;31023;44.994;1.796;2022-12-26T18:40:04;10.30;99.90
45283;DHT22;31023;44.994;1.796;2022-12-26T18:42:30;10.30;99.90
45283;DHT22;31023;44.994;1.796;2022-12-26T18:44:55;10.30;99.90
45283;DHT22;31023;44.994;1.796;2022-12-26T18:47:21;10.30;99.90
45283;DHT22;31023;44.994;1.796;2022-12-26T18:49:48;10.30;99.90
45283;DHT22;31023;44.994;1.796;2022-12-26T18:52:14;10.30;99.90
45283;DHT22;31023;44.994;1.796;2022-12-26T18:54:40;10.30;99.90
45283;DHT22;31023;44.994;1.796;2022-12-26T18:57:07;10.30;99.90
45283;DHT22;31023;44.994;1.796;2022-12-26T18:59:33;10.30;99.90
45283;DHT22;31023;44.994;1.796;2022-12-26T19:01:59;10.40;99.90
45283;DHT22;31023;44.994;1.796;2022-12-26T19:04:26;10.40;99.90
45283;DHT22;31023;44.994;1.796;2022-12-26T19:06:51;10.40;99.90
45283;DHT22;31023;44.994;1.796;2022-12-26T19:09:18;10.30;99.90
45283;DHT22;31023;44.994;1.796;2022-12-26T19:11:44;10.30;99.90
45283;DHT22;31023;44.994;1.796;2022-12-26T19:14:19;10.30;99.90
45283;DHT22;31023;44.994;1.796;2022-12-26T19:16:45;10.20;99.90
45283;DHT22;31023;44.994;1.796;2022-12-26T19:19:10;10.20;99.90
45283;DHT22;31023;44.994;1.796;2022-12-26T19:21:36;10.20;99.90
45283;DHT22;31023;44.994;1.796;2022-12-26T19:24:02;10.20;99.90
45283;DHT22;31023;44.994;1.796;2022-12-26T19:26:27;10.30;99.90
45283;DHT22;31023;44.994;1.796;2022-12-26T19:28:54;10.20;99.90
45283;DHT22;31023;44.994;1.796;2022-12-26T19:31:21;10.20;99.90
45283;DHT22;31023;44.994;1.796;2022-12-26T19:33:47;10.20;99.90
45283;DHT22;31023;44.994;1.796;2022-12-26T19:36:13;10.20;99.90
45283;DHT22;31023;44.994;1.796;2022-12-26T19:38:39;10.20;99.90
45283;DHT22;31023;44.994;1.796;2022-12-26T19:41:12;10.10;99.90
45283;DHT22;31023;44.994;1.796;2022-12-26T19:43:39;10.10;99.90
45283;DHT22;31023;44.994;1.796;2022-12-26T19:46:07;10.10;99.90
45283;DHT22;31023;44.994;1.796;2022-12-26T19:48:34;10.10;99.90
45283;DHT22;31023;44.994;1.796;2022-12-26T19:51:00;10.00;99.90
45283;DHT22;31023;44.994;1.796;2022-12-26T19:53:26;9.90;99.90
45283;DHT22;31023;44.994;1.796;2022-12-26T19:55:52;9.80;99.90
45283;DHT22;31023;44.994;1.796;2022-12-26T19:58:18;9.70;99.90
45283;DHT22;31023;44.994;1.796;2022-12-26T20:00:43;9.60;99.90
45283;DHT22;31023;44.994;1.796;2022-12-26T20:03:10;9.60;99.90
45283;DHT22;31023;44.994;1.796;2022-12-26T20:05:36;9.60;99.90
45283;DHT22;31023;44.994;1.796;2022-12-26T20:08:02;9.70;99.90
45283;DHT22;31023;44.994;1.796;2022-12-26T20:10:28;9.70;99.90